Time;durP1;ratioP1;P1;durP2;ratioP2;P2;SDS_P1;SDS_P2;PMS_P1;PMS_P2;Temp;Humidity;BMP_temperature;BMP_pressure;BME280_temperature;BME280_humidity;BME280_pressure;Samples;Min_cycle;Max_cycle;Signal;HPM_P1;HPM_P2
2022/10/23 00:01:41;;;;;;;58.87;29.73;;;;;;;-141.97;71.00;47740.13;4998671;28;20555;-79
2022/10/23 00:04:14;;;;;;;57.73;29.67;;;;;;;-141.97;71.04;47632.47;5001262;28;20143;-81
2022/10/23 00:06:42;;;;;;;55.90;29.07;;;;;;;-141.97;70.41;47644.00;5007915;28;20167;-81
2022/10/23 00:09:15;;;;;;;56.07;29.27;;;;;;;-141.97;70.27;47611.34;4995594;28;20205;-81
2022/10/23 00:11:43;;;;;;;55.37;27.47;;;;;;;-141.97;70.46;47594.03;4995655;28;20597;-81
2022/10/23 00:14:13;;;;;;;50.97;27.17;;;;;;;-141.97;71.45;47630.56;4995700;28;20215;-81
2022/10/23 00:16:43;;;;;;;51.97;27.43;;;;;;;-141.97;71.10;47609.41;4994448;28;20185;-80
2022/10/23 00:19:12;;;;;;;56.77;28.70;;;;;;;-141.97;71.45;47640.16;4995755;28;20242;-80
2022/10/23 00:21:43;;;;;;;60.27;29.03;;;;;;;-141.97;71.62;47603.66;4995661;28;20614;-80
2022/10/23 00:24:13;;;;;;;56.07;27.63;;;;;;;-141.97;71.12;47613.25;4995813;28;20194;-80
2022/10/23 00:26:45;;;;;;;55.67;28.60;;;;;;;-141.97;70.77;47626.72;4995955;28;20199;-80
2022/10/23 00:29:13;;;;;;;56.83;28.20;;;;;;;-141.97;70.82;47642.09;4995732;28;20614;-81
2022/10/23 00:31:44;;;;;;;61.10;30.57;;;;;;;-141.97;70.42;47657.47;4995459;28;20184;-80
2022/10/23 00:34:14;;;;;;;106.83;48.67;;;;;;;-141.97;69.66;47653.63;4995619;28;20560;-80
2022/10/23 00:36:44;;;;;;;106.43;46.70;;;;;;;-141.97;69.52;47624.78;4995299;28;20551;-81
2022/10/23 00:39:14;;;;;;;76.20;36.80;;;;;;;-141.97;69.52;47605.56;4995521;28;20199;-80
2022/10/23 00:41:45;;;;;;;55.83;29.97;;;;;;;-141.97;69.10;47736.28;4995417;28;20193;-80
2022/10/23 00:44:16;;;;;;;58.33;30.37;;;;;;;-141.97;69.28;47624.78;4995231;28;20168;-80
2022/10/23 00:46:45;;;;;;;52.63;28.87;;;;;;;-141.97;68.97;47582.50;4995486;28;20674;-80
2022/10/23 00:49:17;;;;;;;61.03;30.17;;;;;;;-141.97;68.51;47630.56;4995363;28;20241;-80
2022/10/23 00:51:49;;;;;;;64.10;34.60;;;;;;;-141.97;69.41;47611.34;4995564;28;20636;-80
2022/10/23 00:54:20;;;;;;;55.10;29.80;;;;;;;-141.97;68.83;47626.72;4995166;28;20194;-80
2022/10/23 00:56:46;;;;;;;54.20;27.57;;;;;;;-141.97;68.29;47628.63;4994970;28;20202;-81
2022/10/23 00:59:16;;;;;;;51.50;26.87;;;;;;;-141.97;68.38;47642.09;4995553;28;20163;-80
2022/10/23 01:01:47;;;;;;;56.73;27.57;;;;;;;-141.97;68.33;47632.47;4996006;28;20175;-80
2022/10/23 01:04:17;;;;;;;60.43;32.80;;;;;;;-141.97;68.79;47584.44;4994693;28;20219;-81
2022/10/23 01:07:00;;;;;;;59.63;32.87;;;;;;;-141.97;69.19;47603.66;4995506;28;20250;-80
2022/10/23 01:09:35;;;;;;;67.20;34.37;;;;;;;-141.97;69.29;47718.97;4995029;28;20167;-79
2022/10/23 01:12:03;;;;;;;56.10;30.80;;;;;;;-141.97;69.37;47634.41;4994171;28;20222;-79
2022/10/23 01:14:38;;;;;;;52.37;27.57;;;;;;;-141.97;69.88;47613.25;4994458;28;20238;-79
2022/10/23 01:17:18;;;;;;;53.70;27.40;;;;;;;-141.97;70.22;47630.56;4994247;28;20683;-80
2022/10/23 01:19:59;;;;;;;52.90;24.97;;;;;;;-141.97;70.56;47630.56;4995051;28;20178;-80
2022/10/23 01:22:36;;;;;;;46.40;24.80;;;;;;;-141.97;70.82;47611.34;4994477;28;20622;-81
2022/10/23 01:25:40;;;;;;;54.37;27.43;;;;;;;-141.97;71.34;47632.47;4994268;28;20159;-81
2022/10/23 01:28:11;;;;;;;55.33;29.60;;;;;;;-141.97;70.99;47607.50;4993872;28;20624;-80
2022/10/23 01:30:41;;;;;;;49.13;24.60;;;;;;;-141.97;70.76;47609.41;4993798;28;20273;-80
2022/10/23 01:33:11;;;;;;;46.13;23.97;;;;;;;-141.97;70.98;47622.88;4993956;28;20174;-80
2022/10/23 01:35:49;;;;;;;49.77;24.77;;;;;;;-141.97;71.32;47642.09;4993828;28;20195;-80
2022/10/23 01:38:38;;;;;;;47.27;24.20;;;;;;;-141.97;71.56;47626.72;4995027;28;20174;-78
2022/10/23 01:41:20;;;;;;;45.07;22.83;;;;;;;-141.97;71.75;47642.09;4994786;28;20164;-80
2022/10/23 01:43:52;;;;;;;44.43;23.07;;;;;;;-141.97;71.51;47597.88;5003218;28;20183;-78
2022/10/23 01:46:24;;;;;;;47.70;23.50;;;;;;;-141.97;71.19;47615.19;5008079;28;20619;-80
2022/10/23 01:48:53;;;;;;;39.93;21.87;;;;;;;-141.97;71.10;47644.00;4976260;28;20624;-80
2022/10/23 01:51:26;;;;;;;46.20;22.73;;;;;;;-141.97;71.40;47630.56;4993692;28;20172;-81
2022/10/23 01:53:58;;;;;;;41.53;22.57;;;;;;;-141.97;71.83;47619.03;4993307;28;20345;-81
2022/10/23 01:56:32;;;;;;;41.70;21.80;;;;;;;-141.97;72.12;47613.25;4993679;28;20477;-80
2022/10/23 01:59:02;;;;;;;45.73;23.43;;;;;;;-141.97;72.55;47619.03;4993977;28;20171;-77
2022/10/23 02:01:31;;;;;;;45.03;24.33;;;;;;;-141.97;72.55;47609.41;4993426;28;20238;-80
2022/10/23 02:03:58;;;;;;;41.63;23.40;;;;;;;-141.97;72.87;47634.41;4991933;28;20182;-80
2022/10/23 02:06:24;;;;;;;49.57;24.03;;;;;;;-141.97;73.05;47642.09;4993379;28;20171;-80
2022/10/23 02:08:53;;;;;;;47.27;23.60;;;;;;;-141.97;72.48;47630.56;4993753;28;20167;-80
2022/10/23 02:11:23;;;;;;;43.33;23.20;;;;;;;-141.97;72.52;47595.97;4993731;28;20167;-79
2022/10/23 02:14:02;;;;;;;45.07;23.83;;;;;;;-141.97;72.08;47619.03;4993426;28;20330;-79
2022/10/23 02:16:27;;;;;;;42.23;22.50;;;;;;;-141.97;72.88;47611.34;4993164;28;20600;-80
2022/10/23 02:19:05;;;;;;;44.13;23.60;;;;;;;-141.97;73.32;47599.81;4993305;28;20175;-80
2022/10/23 02:21:49;;;;;;;44.13;24.30;;;;;;;-141.97;74.35;47630.56;4993217;28;20249;-81
2022/10/23 02:24:19;;;;;;;46.37;24.57;;;;;;;-141.97;74.00;47626.72;4993142;28;20172;-80
2022/10/23 02:27:00;;;;;;;41.83;23.63;;;;;;;-141.97;73.45;47649.78;4992996;28;20171;-80
2022/10/23 02:29:37;;;;;;;46.87;23.63;;;;;;;-141.97;73.08;47626.72;4993188;28;20172;-81
2022/10/23 02:32:04;;;;;;;44.90;23.40;;;;;;;-141.97;73.03;47595.97;4992956;28;20167;-81
2022/10/23 02:34:30;;;;;;;44.23;23.27;;;;;;;-141.97;73.05;47601.72;4993061;28;20694;-81
2022/10/23 02:36:56;;;;;;;42.80;23.20;;;;;;;-141.97;72.75;47619.03;4992788;28;20250;-81
2022/10/23 02:39:27;;;;;;;46.30;24.23;;;;;;;-141.97;72.49;47597.88;4993683;28;20306;-80
2022/10/23 02:42:11;;;;;;;40.13;22.10;;;;;;;-141.97;72.10;47519.06;4992157;28;20178;-81
2022/10/23 02:44:45;;;;;;;48.30;24.57;;;;;;;-141.97;72.03;47630.56;4992651;28;20167;-81
2022/10/23 02:47:39;;;;;;;114.63;51.90;;;;;;;-141.97;71.39;47638.25;4994811;28;20197;-80
2022/10/23 02:50:14;;;;;;;100.20;44.90;;;;;;;-141.97;70.96;47630.56;4993959;28;20656;-81
2022/10/23 02:52:46;;;;;;;175.07;81.70;;;;;;;-141.97;71.18;47617.09;4992723;28;20167;-81
2022/10/23 02:55:21;;;;;;;143.03;64.13;;;;;;;-141.97;70.87;47632.47;4992723;28;20191;-81
2022/10/23 02:58:07;;;;;;;180.23;84.53;;;;;;;-141.97;70.62;47651.69;4992848;28;20176;-81
2022/10/23 03:00:36;;;;;;;171.70;78.30;;;;;;;-141.97;70.37;47630.56;4992718;28;20213;-81
2022/10/23 03:03:12;;;;;;;170.40;79.97;;;;;;;-141.97;69.93;47642.09;4992711;28;20511;-81
2022/10/23 03:05:40;;;;;;;242.53;111.20;;;;;;;-141.97;70.64;47626.72;4992369;28;20159;-80
2022/10/23 03:08:08;;;;;;;119.93;51.13;;;;;;;-141.97;71.54;47622.88;4992198;28;20259;-81
2022/10/23 03:10:34;;;;;;;66.23;33.13;;;;;;;-141.97;71.77;47619.03;4992507;28;20171;-81
2022/10/23 03:12:59;;;;;;;50.47;25.10;;;;;;;-141.97;72.29;47536.38;4992180;28;20230;-81
2022/10/23 03:15:30;;;;;;;44.10;23.83;;;;;;;-141.97;72.81;47622.88;4992885;28;20254;-80
2022/10/23 03:17:59;;;;;;;48.63;24.00;;;;;;;-141.97;72.66;47626.72;4992804;28;20624;-80
2022/10/23 03:20:30;;;;;;;46.37;23.57;;;;;;;-141.97;72.38;47626.72;4993032;28;20225;-80
2022/10/23 03:23:00;;;;;;;43.53;22.43;;;;;;;-141.97;72.50;47619.03;4992986;28;20167;-80
2022/10/23 03:25:30;;;;;;;42.07;22.33;;;;;;;-141.97;72.47;47626.72;4992978;28;20164;-80
2022/10/23 03:28:01;;;;;;;45.97;22.30;;;;;;;-141.97;72.50;47634.41;4994961;28;20262;-80
2022/10/23 03:30:31;;;;;;;61.33;26.30;;;;;;;-141.97;72.02;47601.72;4996688;28;20170;-80
2022/10/23 03:33:03;;;;;;;77.03;32.67;;;;;;;-141.97;71.22;47599.81;4996716;28;20191;-80
2022/10/23 03:35:31;;;;;;;77.17;36.40;;;;;;;-141.97;70.82;47640.16;4996036;28;20202;-80
2022/10/23 03:38:02;;;;;;;105.23;50.60;;;;;;;-141.97;70.15;47636.31;4996730;28;20250;-79
2022/10/23 03:40:32;;;;;;;117.07;50.03;;;;;;;-141.97;69.80;47636.31;4996822;28;20646;-80
2022/10/23 03:43:02;;;;;;;83.37;37.50;;;;;;;-141.97;69.84;47619.03;4996675;28;20182;-80
2022/10/23 03:45:33;;;;;;;41.93;22.80;;;;;;;-141.97;70.30;47647.84;4997125;28;20643;-80
2022/10/23 03:48:06;;;;;;;32.70;17.13;;;;;;;-141.97;69.75;47651.69;4997047;28;20173;-80
2022/10/23 03:50:34;;;;;;;28.40;16.40;;;;;;;-141.97;68.36;47636.31;4996661;28;20229;-81
2022/10/23 03:53:03;;;;;;;27.10;15.70;;;;;;;-141.97;67.88;47630.56;4996216;28;20221;-81
2022/10/23 03:55:33;;;;;;;43.93;21.30;;;;;;;-141.97;67.47;47599.81;4991100;28;20195;-80
2022/10/23 03:58:04;;;;;;;55.57;26.30;;;;;;;-141.97;67.43;47592.13;4996207;28;20551;-81
2022/10/23 04:00:36;;;;;;;56.63;33.67;;;;;;;-141.97;66.97;47640.16;4995989;28;20694;-81
2022/10/23 04:03:04;;;;;;;92.20;42.93;;;;;;;-141.97;67.15;47605.56;4996308;28;20171;-81
2022/10/23 04:05:34;;;;;;;128.47;50.20;;;;;;;-141.97;67.18;47626.72;4996890;28;20164;-80
2022/10/23 04:08:05;;;;;;;47.43;24.00;;;;;;;-141.97;68.25;47626.72;5004664;28;20190;-78
2022/10/23 04:10:36;;;;;;;33.13;18.00;;;;;;;-141.97;69.70;47549.84;5009597;28;20267;-80
2022/10/23 04:13:05;;;;;;;30.93;15.43;;;;;;;-141.97;69.95;47632.47;4996044;28;20887;-80
2022/10/23 04:15:35;;;;;;;31.00;15.67;;;;;;;-141.97;69.49;47626.72;4995862;28;20354;-79
2022/10/23 04:18:01;;;;;;;27.43;15.80;;;;;;;-141.97;69.05;47674.78;4978642;28;20659;-80
2022/10/23 04:20:28;;;;;;;32.43;17.23;;;;;;;-141.97;69.10;47613.25;4995440;28;20266;-80
2022/10/23 04:22:54;;;;;;;29.77;15.57;;;;;;;-141.97;68.91;47622.88;4995143;28;20202;-80
2022/10/23 04:25:19;;;;;;;32.97;16.47;;;;;;;-141.97;68.79;47734.34;4995243;28;20195;-80
2022/10/23 04:27:44;;;;;;;26.53;14.97;;;;;;;-141.97;68.64;47765.09;4995307;28;20175;-81
2022/10/23 04:30:10;;;;;;;27.17;14.87;;;;;;;-141.97;68.62;47640.16;4995123;28;20168;-81
2022/10/23 04:32:39;;;;;;;26.23;14.70;;;;;;;-141.97;68.12;47615.19;4995152;28;20167;-81
2022/10/23 04:35:07;;;;;;;27.17;14.57;;;;;;;-141.97;67.96;47611.34;4995357;28;20226;-81
2022/10/23 04:37:46;;;;;;;27.43;14.17;;;;;;;-141.97;67.29;47632.47;4995612;28;20187;-81
2022/10/23 04:40:11;;;;;;;27.40;14.90;;;;;;;-141.97;66.89;47640.16;4993703;28;20198;-79
2022/10/23 04:42:38;;;;;;;26.73;13.87;;;;;;;-141.97;66.63;47622.88;4995077;28;20164;-80
2022/10/23 04:45:08;;;;;;;24.00;12.53;;;;;;;-141.97;66.10;47601.72;4996821;28;20527;-79
2022/10/23 04:47:39;;;;;;;24.20;12.20;;;;;;;-141.97;65.31;47620.94;4995704;28;20236;-80
2022/10/23 04:50:10;;;;;;;20.17;11.60;;;;;;;-141.97;65.53;47617.09;4995744;28;20702;-81
2022/10/23 04:52:39;;;;;;;26.27;12.70;;;;;;;-141.97;65.35;47638.25;4995485;28;20179;-81
2022/10/23 04:55:09;;;;;;;30.73;12.50;;;;;;;-141.97;64.91;47601.72;4995140;28;20198;-80
2022/10/23 04:57:40;;;;;;;32.43;15.53;;;;;;;-141.97;64.99;47620.94;4995523;28;20226;-80
2022/10/23 05:00:12;;;;;;;27.23;14.37;;;;;;;-141.97;64.95;47638.25;4995666;28;20211;-80
2022/10/23 05:02:40;;;;;;;33.60;17.90;;;;;;;-141.97;64.43;47576.75;4994979;28;20186;-81
2022/10/23 05:05:11;;;;;;;24.07;12.03;;;;;;;-141.97;64.61;47611.34;4995085;28;20163;-80
2022/10/23 05:07:40;;;;;;;25.60;12.63;;;;;;;-141.97;64.23;47644.00;4995005;28;20581;-80
2022/10/23 05:10:11;;;;;;;22.20;11.63;;;;;;;-141.97;64.24;47642.09;4995003;28;20186;-79
2022/10/23 05:12:36;;;;;;;20.83;10.97;;;;;;;-141.97;63.57;47626.72;4994777;28;20223;-79
2022/10/23 05:15:01;;;;;;;24.67;11.53;;;;;;;-141.97;62.92;47655.53;4994358;28;20345;-80
2022/10/23 05:17:42;;;;;;;21.70;11.50;;;;;;;-141.97;62.14;47617.09;4994221;28;20806;-80
2022/10/23 05:20:17;;;;;;;22.23;11.03;;;;;;;-141.97;61.45;47630.56;4994575;28;20167;-80
2022/10/23 05:22:44;;;;;;;20.53;10.20;;;;;;;-141.97;61.02;47595.97;4994332;28;20171;-83
2022/10/23 05:25:12;;;;;;;20.33;9.30;;;;;;;-141.97;60.26;47607.50;4994291;28;20163;-79
2022/10/23 05:27:43;;;;;;;22.83;8.90;;;;;;;-141.97;59.86;47611.34;4977420;28;20200;-80
2022/10/23 05:30:14;;;;;;;30.73;14.07;;;;;;;-141.97;59.04;47605.56;4995402;28;20170;-81
2022/10/23 05:32:43;;;;;;;19.83;10.43;;;;;;;-141.97;57.23;47642.09;4995167;28;20172;-80
2022/10/23 05:35:17;;;;;;;17.00;7.80;;;;;;;-141.97;55.18;47649.78;4997817;28;20191;-78
2022/10/23 05:37:47;;;;;;;15.93;8.37;;;;;;;-141.97;53.90;47582.50;4993701;28;20172;-81
2022/10/23 05:40:14;;;;;;;17.67;8.57;;;;;;;-141.97;53.81;47601.72;4995401;28;20163;-83
2022/10/23 05:42:44;;;;;;;17.07;8.23;;;;;;;-141.97;53.24;47753.56;4998441;28;20169;-78
2022/10/23 05:45:15;;;;;;;19.73;8.90;;;;;;;-141.97;52.69;47597.88;4995106;28;20294;-79
2022/10/23 05:47:49;;;;;;;17.40;7.77;;;;;;;-141.97;52.17;47567.13;4994662;28;20227;-80
2022/10/23 05:50:15;;;;;;;21.10;8.17;;;;;;;-141.97;51.13;47588.28;4994145;28;20178;-81
2022/10/23 05:52:46;;;;;;;18.63;8.33;;;;;;;-141.97;50.52;47546.00;4995311;28;20164;-79
2022/10/23 05:55:15;;;;;;;19.53;8.00;;;;;;;-141.97;50.29;47592.13;4977627;28;20203;-81
2022/10/23 05:57:45;;;;;;;21.37;9.17;;;;;;;-141.97;49.05;47574.81;4994178;28;20175;-80
2022/10/23 06:00:20;;;;;;;17.47;7.00;;;;;;;-141.97;47.04;47565.22;4994325;28;20175;-80
2022/10/23 06:02:46;;;;;;;14.20;6.90;;;;;;;-141.97;44.91;47592.13;4995475;28;20680;-81
2022/10/23 06:05:17;;;;;;;13.97;6.87;;;;;;;-141.97;43.97;47586.34;4995275;28;20208;-80
2022/10/23 06:07:48;;;;;;;12.30;6.30;;;;;;;-141.97;42.66;47584.44;4994060;28;20217;-80
2022/10/23 06:10:17;;;;;;;12.07;6.73;;;;;;;-141.97;42.17;47588.28;4994122;28;20167;-80
2022/10/23 06:12:47;;;;;;;12.90;6.73;;;;;;;-141.97;41.99;47553.69;4994055;28;20242;-80
2022/10/23 06:15:17;;;;;;;12.17;6.30;;;;;;;-141.97;41.45;47590.19;4995174;28;20191;-79
2022/10/23 06:17:48;;;;;;;10.40;5.20;;;;;;;-141.97;40.79;47553.69;4997787;28;20158;-79
2022/10/23 06:20:19;;;;;;;14.67;6.30;;;;;;;-141.97;40.63;47561.38;5006316;28;20191;-77
2022/10/23 06:22:48;;;;;;;15.10;6.63;;;;;;;-141.97;40.41;47601.72;4996624;28;20166;-80
2022/10/23 06:25:19;;;;;;;32.10;16.33;;;;;;;-141.97;40.31;47576.75;4994712;28;20160;-80
2022/10/23 06:27:50;;;;;;;12.67;6.60;;;;;;;-141.97;39.89;47519.06;4995063;28;20246;-79
2022/10/23 06:30:18;;;;;;;11.13;5.80;;;;;;;-141.97;39.86;47567.13;4999523;28;20171;-80
2022/10/23 06:32:52;;;;;;;15.43;6.73;;;;;;;-141.97;39.70;47578.66;5006035;28;20163;-77
2022/10/23 06:35:20;;;;;;;14.90;6.53;;;;;;;-141.97;39.21;47584.44;4953106;28;20309;-81
2022/10/23 06:37:49;;;;;;;15.43;7.10;;;;;;;-141.97;38.90;47553.69;4994784;28;20163;-80
2022/10/23 06:40:20;;;;;;;17.87;7.00;;;;;;;-141.97;38.61;47559.44;4995650;28;20163;-80
2022/10/23 06:42:51;;;;;;;15.40;7.00;;;;;;;-141.97;38.38;47580.59;4941994;28;20251;-81
2022/10/23 06:45:20;;;;;;;15.07;7.80;;;;;;;-141.97;38.17;47532.53;5009984;28;20162;-80
2022/10/23 06:47:52;;;;;;;23.30;9.17;;;;;;;-141.97;37.95;47553.69;5000103;28;20502;-79
2022/10/23 06:50:21;;;;;;;20.63;8.80;;;;;;;-141.97;37.79;47538.28;4996902;28;20155;-81
2022/10/23 06:52:51;;;;;;;25.57;9.40;;;;;;;-141.97;37.92;47549.84;4997257;28;20168;-80
2022/10/23 06:55:21;;;;;;;17.20;8.87;;;;;;;-141.97;37.78;47522.91;5003699;28;20225;-79
2022/10/23 06:57:52;;;;;;;19.67;8.10;;;;;;;-141.97;37.77;47519.06;5011595;28;20151;-79
2022/10/23 07:00:24;;;;;;;16.07;7.37;;;;;;;-141.97;37.41;47569.06;5012004;28;20155;-80
2022/10/23 07:02:53;;;;;;;16.13;7.87;;;;;;;-141.97;37.25;47530.59;5010115;28;20163;-80
2022/10/23 07:05:22;;;;;;;22.70;11.10;;;;;;;-141.97;37.17;47494.09;5010179;28;20163;-79
2022/10/23 07:07:52;;;;;;;57.03;28.30;;;;;;;-141.97;37.22;47549.84;4996530;28;20163;-80
2022/10/23 07:10:17;;;;;;;19.90;9.10;;;;;;;-141.97;37.34;47546.00;4994639;28;20194;-79
2022/10/23 07:12:47;;;;;;;21.40;9.70;;;;;;;-141.97;37.15;47519.06;4993052;28;20269;-79
2022/10/23 07:15:13;;;;;;;16.73;9.73;;;;;;;-141.97;37.17;47538.28;4993612;28;20229;-79
2022/10/23 07:17:39;;;;;;;19.83;9.53;;;;;;;-141.97;37.17;47490.25;4993819;28;20167;-80
2022/10/23 07:20:04;;;;;;;16.93;9.17;;;;;;;-141.97;37.04;47519.06;4993710;28;20683;-81
2022/10/23 07:22:30;;;;;;;21.37;10.40;;;;;;;-141.97;36.84;47559.44;4993729;28;20183;-79
2022/10/23 07:24:55;;;;;;;34.57;16.33;;;;;;;-141.97;36.48;47546.00;4994498;28;20166;-79
2022/10/23 07:27:24;;;;;;;13.63;8.30;;;;;;;-141.97;36.50;47542.16;4994040;28;20548;-81
2022/10/23 07:29:54;;;;;;;16.73;8.43;;;;;;;-141.97;36.27;47501.78;4993900;28;20164;-79
2022/10/23 07:32:27;;;;;;;14.17;7.27;;;;;;;-141.97;36.39;47511.38;4993498;28;20576;-79
2022/10/23 07:34:55;;;;;;;12.97;6.90;;;;;;;-141.97;36.60;47496.00;4994036;28;20752;-82
2022/10/23 07:37:25;;;;;;;14.77;6.17;;;;;;;-141.97;36.67;47538.28;4993602;28;20171;-79
2022/10/23 07:39:56;;;;;;;17.87;8.00;;;;;;;-141.97;36.72;47517.16;4993801;28;20175;-80
2022/10/23 07:42:25;;;;;;;16.37;8.30;;;;;;;-141.97;36.91;47488.31;4993556;28;20250;-80
2022/10/23 07:45:03;;;;;;;15.37;7.27;;;;;;;-141.97;37.02;47530.59;4993253;28;20302;-79
2022/10/23 07:47:29;;;;;;;11.27;6.70;;;;;;;-141.97;37.04;47499.84;4991479;28;20184;-80
2022/10/23 07:49:56;;;;;;;13.30;7.77;;;;;;;-141.97;36.88;47538.28;4992975;28;20167;-80
2022/10/23 07:52:26;;;;;;;12.03;6.73;;;;;;;-141.97;36.76;47503.69;4975292;28;20175;-78
2022/10/23 07:54:57;;;;;;;9.13;5.00;;;;;;;-141.97;36.72;47499.84;4992871;28;20725;-78
2022/10/23 07:57:27;;;;;;;12.77;6.57;;;;;;;-141.97;36.90;47501.78;4992741;28;20226;-79
2022/10/23 07:59:59;;;;;;;9.93;5.77;;;;;;;-141.97;36.90;47509.47;4992885;28;20202;-79
2022/10/23 08:02:27;;;;;;;10.33;5.60;;;;;;;-141.97;36.97;47532.53;4992907;28;20167;-81
2022/10/23 08:04:57;;;;;;;9.43;5.60;;;;;;;-141.97;36.62;47555.59;4993154;28;20237;-79
2022/10/23 08:07:28;;;;;;;14.07;6.07;;;;;;;-141.97;36.43;47532.53;4991444;28;20203;-79
2022/10/23 08:09:58;;;;;;;11.13;6.60;;;;;;;-141.97;36.91;47515.22;4992923;28;20285;-80
2022/10/23 08:12:30;;;;;;;17.30;8.87;;;;;;;-141.97;37.34;47511.38;4992447;28;20219;-80
2022/10/23 08:14:59;;;;;;;19.40;7.57;;;;;;;-141.97;38.08;47482.56;4979597;28;20281;-80
2022/10/23 08:17:29;;;;;;;17.17;8.33;;;;;;;-141.97;37.92;47515.22;4996840;28;20170;-81
2022/10/23 08:20:01;;;;;;;11.87;5.23;;;;;;;-141.97;37.76;47496.00;4995982;28;20163;-81
2022/10/23 08:22:29;;;;;;;8.80;4.80;;;;;;;-141.97;38.33;47484.47;4996390;28;20164;-81
2022/10/23 08:25:00;;;;;;;7.97;5.30;;;;;;;-141.97;38.29;47492.16;4997162;28;20538;-81
2022/10/23 08:27:30;;;;;;;12.47;5.20;;;;;;;-141.97;37.81;47503.69;4996716;28;20176;-81
2022/10/23 08:30:00;;;;;;;13.77;6.13;;;;;;;-141.97;38.02;47499.84;4996177;28;20176;-81
2022/10/23 08:32:30;;;;;;;9.13;4.20;;;;;;;-141.97;38.11;47534.44;4996602;28;20167;-80
2022/10/23 08:35:01;;;;;;;11.27;4.60;;;;;;;-141.97;38.22;47542.16;4997760;28;20187;-79
2022/10/23 08:37:32;;;;;;;10.43;4.87;;;;;;;-141.97;37.77;47499.84;4995529;28;20171;-79
2022/10/23 08:40:02;;;;;;;18.60;7.77;;;;;;;-141.97;37.74;47467.19;4999677;28;20250;-79
2022/10/23 08:42:37;;;;;;;13.30;6.57;;;;;;;-141.97;37.53;47503.69;4996165;28;20667;-82
2022/10/23 08:45:24;;;;;;;11.90;5.30;;;;;;;-141.97;37.53;47521.00;4995934;28;20650;-80
2022/10/23 08:47:56;;;;;;;10.57;4.97;;;;;;;-141.97;37.50;47419.13;4996899;28;20179;-79
2022/10/23 08:50:45;;;;;;;12.37;5.33;;;;;;;-141.97;37.40;47522.91;4996060;28;20231;-79
2022/10/23 08:53:17;;;;;;;13.33;5.83;;;;;;;-141.97;37.44;47497.94;4994750;28;20176;-83
2022/10/23 08:55:48;;;;;;;21.30;6.80;;;;;;;-141.97;36.88;47472.94;4997982;28;20195;-79
2022/10/23 08:58:37;;;;;;;26.43;7.90;;;;;;;-141.97;36.58;47480.63;5008494;28;20151;-77
2022/10/23 09:01:39;;;;;;;20.73;5.80;;;;;;;-141.97;36.79;47480.63;5005785;28;20156;-80
2022/10/23 09:04:05;;;;;;;11.33;5.07;;;;;;;-141.97;36.62;47501.78;4994062;28;20423;-80
2022/10/23 09:06:52;;;;;;;7.13;3.80;;;;;;;-141.97;37.23;47586.34;4995179;28;20414;-80
2022/10/23 09:10:04;;;;;;;9.10;4.37;;;;;;;-141.97;36.73;47494.09;5000170;28;20170;-79
2022/10/23 09:12:35;;;;;;;21.43;9.60;;;;;;;-141.97;36.47;47503.69;5000678;28;20286;-80
2022/10/23 09:15:41;;;;;;;46.17;20.73;;;;;;;-141.97;36.33;47442.19;5004577;28;20210;-81
2022/10/23 09:18:13;;;;;;;43.17;20.57;;;;;;;-141.97;36.03;47469.09;5004501;28;20164;-82
2022/10/23 09:20:40;;;;;;;38.27;20.77;;;;;;;-141.97;36.15;47465.25;5003916;28;20172;-81
2022/10/23 09:23:23;;;;;;;21.87;7.33;;;;;;;-141.97;35.55;47490.25;5003360;28;20187;-82
2022/10/23 09:25:54;;;;;;;18.33;8.47;;;;;;;-141.97;35.63;47595.97;5000816;28;20210;-81
2022/10/23 09:28:36;;;;;;;20.27;8.97;;;;;;;-141.97;35.59;47486.41;5001098;28;20160;-80
2022/10/23 09:31:10;;;;;;;13.37;5.97;;;;;;;-141.97;35.40;47486.41;4999002;28;20163;-78
2022/10/23 09:33:39;;;;;;;19.90;10.40;;;;;;;-141.97;35.52;47438.34;4995083;28;20179;-81
2022/10/23 09:36:19;;;;;;;10.40;6.18;;;;;;;-141.97;35.05;47467.19;4995673;28;20182;-81
2022/10/23 09:38:44;;;;;;;16.55;7.30;;;;;;;-141.97;34.85;47478.72;4995581;28;20168;-79
2022/10/23 09:41:21;;;;;;;17.52;9.15;;;;;;;-141.97;34.94;47499.84;4995406;28;20214;-80
2022/10/23 09:44:21;;;;;;;46.05;25.55;;;;;;;-141.97;34.74;47492.16;4995897;28;20745;-84
2022/10/23 09:46:49;;;;;;;46.28;24.38;;;;;;;-141.97;34.30;47455.66;4917879;29;20711;-81
2022/10/23 09:49:33;;;;;;;7.90;3.58;;;;;;;-141.97;34.28;47486.41;4916324;29;20203;-79
2022/10/23 09:52:11;;;;;;;8.70;4.00;;;;;;;-141.97;34.71;47469.09;4915654;29;20198;-80
2022/10/23 09:54:52;;;;;;;6.63;3.07;;;;;;;-141.97;34.56;47490.25;4917022;29;20235;-82
2022/10/23 09:57:31;;;;;;;14.50;5.15;;;;;;;-141.97;34.47;47565.22;4916207;29;20191;-79
2022/10/23 10:00:17;;;;;;;5.37;3.27;;;;;;;-141.97;34.13;47492.16;4919383;29;20183;-80
2022/10/23 10:02:57;;;;;;;21.40;7.72;;;;;;;-141.97;34.08;47467.19;4917070;29;20181;-80
2022/10/23 10:05:32;;;;;;;6.28;3.97;;;;;;;-141.97;33.93;47482.56;4917849;29;20669;-79
2022/10/23 10:08:01;;;;;;;6.97;3.28;;;;;;;-141.97;33.70;47480.63;4918641;29;20731;-80
2022/10/23 10:10:34;;;;;;;5.85;4.03;;;;;;;-141.97;33.45;47465.25;4919793;29;20219;-81
2022/10/23 10:13:11;;;;;;;14.73;7.65;;;;;;;-141.97;32.99;47469.09;4921338;29;20261;-81
2022/10/23 10:15:48;;;;;;;12.10;6.40;;;;;;;-141.97;33.10;47453.72;4920793;29;20208;-80
2022/10/23 10:18:42;;;;;;;4.18;2.97;;;;;;;-141.97;33.25;47426.81;4917783;29;20222;-80
2022/10/23 10:21:19;;;;;;;6.47;3.17;;;;;;;-141.97;33.17;47603.66;4924390;29;20178;-80
2022/10/23 10:23:49;;;;;;;6.13;3.30;;;;;;;-141.97;33.41;47474.88;4954779;28;20205;-80
2022/10/23 10:26:17;;;;;;;12.35;7.28;;;;;;;-141.97;32.35;47438.34;5001491;28;20169;-82
2022/10/23 10:29:01;;;;;;;5.25;3.40;;;;;;;-141.97;33.05;47419.13;4999983;28;20174;-81
2022/10/23 10:31:53;;;;;;;7.57;4.43;;;;;;;-141.97;32.97;47457.56;4998841;28;20195;-81
2022/10/23 10:34:27;;;;;;;8.30;4.68;;;;;;;-141.97;32.97;47447.97;4999987;28;20195;-80
2022/10/23 10:37:04;;;;;;;5.55;3.95;;;;;;;-141.97;32.31;47465.25;4998184;28;20202;-81
2022/10/23 10:39:37;;;;;;;5.35;3.30;;;;;;;-141.97;32.36;47461.41;4999676;28;20814;-79
2022/10/23 10:42:21;;;;;;;4.63;3.40;;;;;;;-141.97;32.22;47422.97;5000411;28;20186;-80
2022/10/23 10:45:05;;;;;;;7.38;4.10;;;;;;;-141.97;31.65;47474.88;4999820;28;20173;-81
2022/10/23 10:47:46;;;;;;;12.20;4.90;;;;;;;-141.97;31.21;47461.41;5000102;28;20254;-80
2022/10/23 10:50:50;;;;;;;6.22;4.28;;;;;;;-141.97;31.17;47449.88;4999962;28;20169;-80
2022/10/23 10:53:34;;;;;;;6.22;3.83;;;;;;;-141.97;30.94;47480.63;4979926;28;20633;-80
2022/10/23 10:56:03;;;;;;;7.60;3.55;;;;;;;-141.97;31.44;47438.34;4995562;28;20195;-79
2022/10/23 10:58:46;;;;;;;5.85;3.10;;;;;;;-141.97;31.56;47357.63;5002602;28;20179;-81
2022/10/23 11:02:25;;;;;;;5.38;3.30;;;;;;;-141.97;31.58;47461.41;4994069;28;20162;-80
2022/10/23 11:05:01;;;;;;;4.25;2.80;;;;;;;-141.97;31.14;47422.97;4879504;29;20184;-80
2022/10/23 11:07:36;;;;;;;4.68;3.00;;;;;;;-141.97;31.66;47469.09;4877076;29;20194;-77
2022/10/23 11:10:12;;;;;;;5.38;3.08;;;;;;;-141.97;31.81;47476.78;4879329;29;20198;-80
2022/10/23 11:12:38;;;;;;;5.38;3.08;;;;;;;-141.97;31.66;47471.03;4880913;29;20248;-80
2022/10/23 11:15:25;;;;;;;3.08;2.63;;;;;;;-141.97;31.73;47653.63;4867246;29;20288;-79
2022/10/23 11:17:57;;;;;;;4.32;2.97;;;;;;;-141.97;31.59;47428.75;4871200;29;20187;-81
2022/10/23 11:20:40;;;;;;;6.03;2.72;;;;;;;-141.97;31.06;47459.50;4864489;29;20193;-81
2022/10/23 11:23:18;;;;;;;6.10;3.30;;;;;;;-141.97;31.27;47436.44;4864482;29;20200;-80
2022/10/23 11:25:49;;;;;;;4.63;3.28;;;;;;;-141.97;31.08;47446.03;4861234;29;20219;-80
2022/10/23 11:28:42;;;;;;;7.40;3.40;;;;;;;-141.97;31.37;47465.25;4866617;29;20269;-80
2022/10/23 11:31:07;;;;;;;6.28;3.28;;;;;;;-141.97;31.29;47442.19;4865028;29;20176;-80
2022/10/23 11:33:57;;;;;;;6.57;3.40;;;;;;;-141.97;31.17;47432.59;4862763;29;20694;-79